createdAt,value
2018-09-03T00:01:06.281Z,17.33
2018-09-03T00:03:34.546Z,15.23
2018-09-03T00:06:02.904Z,18.57
2018-09-03T00:08:31.195Z,14.20
2018-09-03T00:10:59.523Z,14.77
2018-09-03T00:13:27.887Z,20.07
2018-09-03T00:15:56.201Z,17.13
2018-09-03T00:18:24.548Z,16.20
2018-09-03T00:20:52.896Z,15.53
2018-09-03T00:23:21.316Z,13.90
2018-09-03T00:25:49.665Z,18.27
2018-09-03T00:28:18.178Z,20.43
2018-09-03T00:30:46.610Z,18.80
2018-09-03T00:33:20.966Z,18.40
2018-09-03T00:35:54.536Z,21.50
2018-09-03T00:38:29.306Z,20.63
2018-09-03T00:41:03.701Z,15.77
2018-09-03T00:43:37.284Z,15.27
2018-09-03T00:46:11.279Z,17.30
2018-09-03T00:48:40.574Z,16.27
2018-09-03T00:51:08.869Z,13.60
2018-09-03T00:53:37.154Z,18.67
2018-09-03T00:56:05.432Z,18.00
2018-09-03T00:58:33.754Z,20.13
2018-09-03T01:01:02.071Z,16.67
2018-09-03T01:03:30.369Z,17.03
2018-09-03T01:05:58.683Z,17.30
2018-09-03T01:08:26.985Z,22.03
2018-09-03T01:10:55.269Z,20.20
2018-09-03T01:13:23.566Z,24.63
2018-09-03T01:15:51.827Z,24.47
2018-09-03T01:18:20.105Z,23.37
2018-09-03T01:20:48.816Z,24.00
2018-09-03T01:23:17.269Z,32.63
2018-09-03T01:25:45.584Z,23.13
2018-09-03T01:28:13.862Z,28.00
2018-09-03T01:30:42.150Z,24.70
2018-09-03T01:33:10.451Z,25.03
2018-09-03T01:35:38.759Z,27.70
2018-09-03T01:38:07.064Z,31.53
2018-09-03T01:40:35.352Z,27.37
2018-09-03T01:43:03.683Z,27.40
2018-09-03T01:45:31.990Z,25.97
2018-09-03T01:48:00.282Z,23.83
2018-09-03T01:50:28.577Z,27.30
2018-09-03T01:52:56.846Z,26.70
2018-09-03T01:55:25.132Z,25.53
2018-09-03T01:57:53.418Z,27.80
2018-09-03T02:00:21.675Z,24.17
2018-09-03T02:02:50.005Z,31.90
2018-09-03T02:07:52.724Z,32.27
2018-09-03T02:10:21.032Z,26.23
2018-09-03T02:12:49.305Z,33.83
2018-09-03T02:15:17.596Z,29.83
2018-09-03T02:17:45.871Z,30.30
2018-09-03T02:20:14.162Z,26.27
2018-09-03T02:22:42.448Z,29.83
2018-09-03T02:25:10.738Z,28.57
2018-09-03T02:27:39.010Z,30.20
2018-09-03T02:30:07.352Z,25.50
2018-09-03T02:32:35.642Z,28.77
2018-09-03T02:35:03.932Z,28.27
2018-09-03T02:37:32.195Z,34.00
2018-09-03T02:40:00.459Z,31.00
2018-09-03T02:42:28.740Z,30.00
2018-09-03T02:44:57.008Z,32.30
2018-09-03T02:47:25.303Z,30.20
2018-09-03T02:49:53.581Z,35.80
2018-09-03T02:52:21.916Z,37.63
2018-09-03T02:54:51.214Z,33.80
2018-09-03T02:57:19.592Z,39.43
2018-09-03T02:59:47.906Z,31.70
2018-09-03T03:02:16.217Z,30.67
2018-09-03T03:04:44.503Z,38.43
2018-09-03T03:07:12.835Z,36.10
2018-09-03T03:09:41.139Z,31.80
2018-09-03T03:12:09.470Z,33.87
2018-09-03T03:14:37.798Z,28.10
2018-09-03T03:17:06.235Z,33.63
2018-09-03T03:19:34.546Z,38.33
2018-09-03T03:22:02.850Z,31.20
2018-09-03T03:24:31.134Z,35.43
2018-09-03T03:26:59.496Z,35.47
2018-09-03T03:29:27.772Z,37.93
2018-09-03T03:31:56.068Z,41.93
2018-09-03T03:34:24.338Z,43.53
2018-09-03T03:36:52.639Z,49.33
2018-09-03T03:39:20.891Z,51.53
2018-09-03T03:41:49.195Z,44.80
2018-09-03T03:44:17.515Z,35.77
2018-09-03T03:46:45.854Z,39.70
2018-09-03T03:49:14.148Z,42.93
2018-09-03T03:51:42.430Z,32.97
2018-09-03T03:54:10.728Z,41.47
2018-09-03T03:56:39.055Z,40.20
2018-09-03T03:59:07.370Z,40.40
2018-09-03T04:01:35.714Z,39.80
2018-09-03T04:04:04.025Z,45.27
2018-09-03T04:06:32.339Z,40.07
2018-09-03T04:09:00.758Z,35.73
2018-09-03T04:11:29.126Z,39.53
2018-09-03T04:13:57.435Z,40.43
2018-09-03T04:16:25.825Z,37.90
2018-09-03T04:18:54.331Z,40.33
2018-09-03T04:21:22.657Z,44.60
2018-09-03T04:23:50.936Z,43.87
2018-09-03T04:26:19.399Z,57.93
2018-09-03T04:28:47.756Z,51.30
2018-09-03T04:31:16.014Z,47.80
2018-09-03T04:33:44.303Z,54.67
2018-09-03T04:36:12.600Z,51.43
2018-09-03T04:38:40.933Z,54.53
2018-09-03T04:41:09.231Z,47.60
2018-09-03T04:43:37.590Z,47.40
2018-09-03T04:46:05.899Z,48.17
2018-09-03T04:48:34.187Z,54.93
2018-09-03T04:51:02.476Z,46.17
2018-09-03T04:53:30.758Z,56.93
2018-09-03T04:55:59.088Z,62.17
2018-09-03T04:58:33.735Z,51.73
2018-09-03T05:01:02.090Z,54.47
2018-09-03T05:03:30.420Z,47.47
2018-09-03T05:05:58.743Z,49.67
2018-09-03T05:08:27.075Z,50.77
2018-09-03T05:10:55.405Z,44.33
2018-09-03T05:13:23.730Z,50.60
2018-09-03T05:15:52.037Z,45.43
2018-09-03T05:18:20.516Z,47.97
2018-09-03T05:20:48.845Z,47.37
2018-09-03T05:23:17.154Z,44.57
2018-09-03T05:25:45.498Z,38.33
2018-09-03T05:28:13.868Z,39.43
2018-09-03T05:30:42.234Z,46.93
2018-09-03T05:33:10.616Z,47.00
2018-09-03T05:35:39.158Z,42.17
2018-09-03T05:38:07.583Z,45.07
2018-09-03T05:40:35.859Z,41.17
2018-09-03T05:43:04.249Z,46.90
2018-09-03T05:45:32.561Z,47.70
2018-09-03T05:48:00.908Z,50.47
2018-09-03T05:50:29.470Z,48.03
2018-09-03T05:52:59.131Z,41.07
2018-09-03T05:55:27.571Z,47.63
2018-09-03T05:57:55.906Z,40.67
2018-09-03T06:00:24.333Z,41.57
2018-09-03T06:02:55.077Z,46.03
2018-09-03T06:05:23.893Z,42.50
2018-09-03T06:07:52.236Z,43.57
2018-09-03T06:10:20.839Z,43.13
2018-09-03T06:12:49.501Z,36.40
2018-09-03T06:15:19.731Z,41.33
2018-09-03T06:17:48.191Z,40.50
2018-09-03T06:20:16.758Z,39.20
2018-09-03T06:22:45.445Z,40.10
2018-09-03T06:25:14.362Z,32.17
2018-09-03T06:27:44.360Z,33.30
2018-09-03T06:30:13.483Z,32.03
2018-09-03T06:32:41.988Z,37.80
2018-09-03T06:35:10.643Z,32.60
2018-09-03T06:37:38.977Z,28.53
2018-09-03T06:40:07.282Z,25.87
2018-09-03T06:42:35.586Z,27.60
2018-09-03T06:45:03.994Z,30.17
2018-09-03T06:47:32.284Z,29.57
2018-09-03T06:50:00.559Z,29.60
2018-09-03T06:52:28.987Z,30.43
2018-09-03T06:54:58.423Z,27.83
2018-09-03T06:57:27.232Z,30.57
2018-09-03T06:59:55.788Z,27.20
2018-09-03T07:02:24.136Z,36.63
2018-09-03T07:04:52.552Z,29.83
2018-09-03T07:07:20.844Z,26.57
2018-09-03T07:09:49.116Z,27.80
2018-09-03T07:12:17.393Z,26.87
2018-09-03T07:14:45.730Z,25.07
2018-09-03T07:17:15.894Z,23.03
2018-09-03T07:19:44.605Z,22.67
2018-09-03T07:22:13.243Z,25.27
2018-09-03T07:24:41.584Z,24.40
2018-09-03T07:27:10.350Z,27.57
2018-09-03T07:29:38.639Z,19.70
2018-09-03T07:32:06.990Z,23.80
2018-09-03T07:34:41.989Z,23.03
2018-09-03T07:37:10.625Z,23.90
2018-09-03T07:39:38.941Z,27.80
2018-09-03T07:42:07.390Z,23.43
2018-09-03T07:44:35.681Z,23.87
2018-09-03T07:47:04.040Z,28.43
2018-09-03T07:49:32.521Z,22.97
2018-09-03T07:52:00.842Z,26.43
2018-09-03T07:54:29.205Z,26.77
2018-09-03T07:56:57.624Z,27.93
2018-09-03T07:59:25.905Z,22.17
2018-09-03T08:01:54.179Z,24.63
2018-09-03T08:04:22.453Z,24.50
2018-09-03T08:06:50.731Z,27.33
2018-09-03T08:09:19.038Z,42.63
2018-09-03T08:11:47.334Z,31.20
2018-09-03T08:14:15.735Z,32.50
2018-09-03T08:16:44.057Z,31.33
2018-09-03T08:19:12.403Z,29.73
2018-09-03T08:21:40.703Z,34.03
2018-09-03T08:24:09.023Z,33.23
2018-09-03T08:26:37.408Z,29.57
2018-09-03T08:29:05.745Z,32.37
2018-09-03T08:31:34.028Z,27.73
2018-09-03T08:34:02.336Z,30.70
2018-09-03T08:36:36.959Z,34.63
2018-09-03T08:39:06.484Z,36.87
2018-09-03T08:41:34.819Z,34.37
2018-09-03T08:44:03.137Z,37.50
2018-09-03T08:46:31.521Z,37.20
2018-09-03T08:48:59.922Z,43.83
2018-09-03T08:51:28.327Z,51.20
2018-09-03T08:53:56.782Z,53.90
2018-09-03T08:56:25.143Z,54.23
2018-09-03T08:58:53.647Z,62.77
2018-09-03T09:01:22.083Z,60.20
2018-09-03T09:03:50.687Z,56.27
2018-09-03T09:06:19.026Z,46.33
2018-09-03T09:08:47.398Z,69.37
2018-09-03T09:11:15.688Z,56.80
2018-09-03T09:13:44.066Z,76.20
2018-09-03T09:16:12.510Z,74.53
2018-09-03T09:18:40.717Z,70.70
2018-09-03T09:21:08.999Z,81.30
2018-09-03T09:23:37.300Z,73.90
2018-09-03T09:26:05.739Z,68.60
2018-09-03T09:28:34.127Z,82.27
2018-09-03T09:31:02.471Z,94.97
2018-09-03T09:33:30.736Z,73.17
2018-09-03T09:35:58.948Z,72.20
2018-09-03T09:38:27.223Z,88.57
2018-09-03T09:40:55.519Z,88.47
2018-09-03T09:43:23.827Z,98.77
2018-09-03T09:45:52.121Z,101.83
2018-09-03T09:48:20.443Z,102.53
2018-09-03T09:50:48.734Z,105.40
2018-09-03T09:53:17.031Z,89.77
2018-09-03T09:55:45.340Z,111.00
2018-09-03T09:58:13.665Z,99.77
2018-09-03T10:00:47.316Z,97.07
2018-09-03T10:03:15.620Z,98.20
2018-09-03T10:05:43.901Z,113.87
2018-09-03T10:08:12.251Z,103.70
2018-09-03T10:10:41.511Z,115.27
2018-09-03T10:13:09.837Z,93.30
2018-09-03T10:15:38.124Z,104.40
2018-09-03T10:18:12.993Z,97.07
2018-09-03T10:20:41.290Z,100.67
2018-09-03T10:23:09.719Z,107.00
2018-09-03T10:25:38.561Z,97.43
2018-09-03T10:28:07.100Z,99.33
2018-09-03T10:30:35.376Z,86.73
2018-09-03T10:33:03.659Z,79.60
2018-09-03T10:35:32.195Z,73.33
2018-09-03T10:38:00.570Z,79.40
2018-09-03T10:40:28.782Z,78.90
2018-09-03T10:42:57.311Z,70.00
2018-09-03T10:45:25.783Z,76.30
2018-09-03T10:47:54.098Z,70.63
2018-09-03T10:50:22.370Z,81.00
2018-09-03T10:52:50.720Z,72.03
2018-09-03T10:55:18.996Z,69.67
2018-09-03T10:57:47.267Z,69.00
2018-09-03T11:00:15.555Z,67.17
2018-09-03T11:02:43.813Z,66.33
2018-09-03T11:05:12.118Z,53.27
2018-09-03T11:07:40.347Z,54.57
2018-09-03T11:10:08.638Z,76.57
2018-09-03T11:12:36.906Z,54.93
2018-09-03T11:15:05.591Z,52.20
2018-09-03T11:17:33.887Z,55.07
2018-09-03T11:20:03.474Z,54.03
2018-09-03T11:22:31.782Z,51.37
2018-09-03T11:25:00.344Z,49.77
2018-09-03T11:27:28.650Z,52.53
2018-09-03T11:29:56.974Z,50.47
2018-09-03T11:32:25.269Z,52.93
2018-09-03T11:34:53.565Z,47.97
2018-09-03T11:37:21.818Z,48.00
2018-09-03T11:39:50.135Z,56.67
2018-09-03T11:42:18.397Z,58.83
2018-09-03T11:44:46.702Z,53.30
2018-09-03T11:47:15.028Z,52.70
2018-09-03T11:49:43.347Z,55.17
2018-09-03T11:52:11.621Z,56.83
2018-09-03T11:54:39.934Z,53.53
2018-09-03T11:57:08.295Z,54.77
2018-09-03T11:59:36.562Z,53.80
2018-09-03T12:02:05.240Z,55.63
2018-09-03T12:04:33.516Z,57.60
2018-09-03T12:07:01.829Z,54.73
2018-09-03T12:09:30.130Z,62.47
2018-09-03T12:11:58.432Z,63.17
2018-09-03T12:14:29.119Z,61.50
2018-09-03T12:16:57.551Z,54.73
2018-09-03T12:19:25.841Z,54.53
2018-09-03T12:21:54.141Z,57.00
2018-09-03T12:24:22.443Z,60.57
2018-09-03T12:26:50.730Z,54.80
2018-09-03T12:29:19.018Z,54.57
2018-09-03T12:31:47.398Z,53.33
2018-09-03T12:34:15.689Z,57.93
2018-09-03T12:36:43.982Z,54.23
2018-09-03T12:39:12.301Z,54.13
2018-09-03T12:41:40.622Z,52.90
2018-09-03T12:44:08.927Z,57.03
2018-09-03T12:46:37.197Z,57.07
2018-09-03T12:49:12.130Z,58.47
2018-09-03T12:51:41.390Z,57.97
2018-09-03T12:54:09.674Z,57.60
2018-09-03T12:56:37.993Z,57.20
2018-09-03T12:59:06.337Z,66.67
2018-09-03T13:01:34.638Z,53.03
2018-09-03T13:04:02.935Z,59.07
2018-09-03T13:06:31.324Z,56.50
2018-09-03T13:08:59.597Z,51.80
2018-09-03T13:11:27.864Z,52.87
2018-09-03T13:13:56.135Z,48.77
2018-09-03T13:16:24.423Z,51.77
2018-09-03T13:18:52.757Z,52.20
2018-09-03T13:21:22.107Z,51.37
2018-09-03T13:23:50.374Z,54.07
2018-09-03T13:26:18.669Z,47.63
2018-09-03T13:28:46.937Z,49.40
2018-09-03T13:31:17.192Z,51.47
2018-09-03T13:33:45.446Z,46.33
2018-09-03T13:36:13.820Z,48.90
2018-09-03T13:38:42.016Z,49.40
2018-09-03T13:41:10.335Z,45.73
2018-09-03T13:43:38.756Z,45.80
2018-09-03T13:46:08.023Z,45.33
2018-09-03T13:48:36.308Z,48.60
2018-09-03T13:51:04.595Z,49.53
2018-09-03T13:53:32.858Z,53.27
2018-09-03T13:56:01.162Z,45.93
2018-09-03T13:58:29.454Z,50.23
2018-09-03T14:00:57.793Z,45.87
2018-09-03T14:03:26.069Z,44.37
2018-09-03T14:05:54.330Z,46.60
2018-09-03T14:08:22.670Z,45.70
2018-09-03T14:10:50.951Z,51.33
2018-09-03T14:13:19.248Z,50.17
2018-09-03T14:15:47.587Z,56.87
2018-09-03T14:18:15.813Z,48.23
2018-09-03T14:20:46.626Z,58.33
2018-09-03T14:23:14.906Z,58.67
2018-09-03T14:25:43.287Z,55.10
2018-09-03T14:28:11.608Z,61.07
2018-09-03T14:30:39.905Z,50.10
2018-09-03T14:33:08.194Z,58.10
2018-09-03T14:35:36.476Z,59.37
2018-09-03T14:38:04.751Z,54.93
2018-09-03T14:40:33.045Z,59.03
2018-09-03T14:43:01.429Z,56.97
2018-09-03T14:45:29.666Z,64.00
2018-09-03T14:47:57.975Z,65.50
2018-09-03T14:50:26.264Z,59.80
2018-09-03T14:52:55.580Z,68.77
2018-09-03T14:55:23.904Z,67.37
2018-09-03T14:57:52.210Z,75.37
2018-09-03T15:00:20.499Z,63.23
2018-09-03T15:02:48.921Z,66.90
2018-09-03T15:05:17.227Z,64.90
2018-09-03T15:07:45.557Z,62.70
2018-09-03T15:10:13.835Z,65.10
2018-09-03T15:12:42.336Z,65.57
2018-09-03T15:15:10.662Z,63.17
2018-09-03T15:20:13.410Z,65.77
2018-09-03T15:22:41.813Z,65.73
2018-09-03T15:25:10.195Z,68.03
2018-09-03T15:27:38.727Z,66.00
2018-09-03T15:30:07.085Z,61.53
2018-09-03T15:32:35.481Z,57.20
2018-09-03T15:35:03.794Z,66.00
2018-09-03T15:37:33.926Z,68.47
2018-09-03T15:40:07.431Z,70.03
2018-09-03T15:42:36.242Z,65.60
2018-09-03T15:45:04.598Z,64.30
2018-09-03T15:47:32.976Z,61.00
2018-09-03T15:50:01.284Z,62.70
2018-09-03T15:52:29.594Z,64.37
2018-09-03T15:54:57.896Z,58.37
2018-09-03T15:57:26.192Z,55.90
2018-09-03T15:59:54.467Z,62.67
2018-09-03T16:02:22.774Z,65.27
2018-09-03T16:04:51.069Z,66.20
2018-09-03T16:07:19.330Z,60.47
2018-09-03T16:09:47.595Z,67.17
2018-09-03T16:12:15.857Z,55.20
2018-09-03T16:14:44.154Z,63.70
2018-09-03T16:17:12.465Z,62.30
2018-09-03T16:19:40.765Z,65.80
2018-09-03T16:22:09.312Z,53.87
2018-09-03T16:24:37.582Z,64.27
2018-09-03T16:27:05.843Z,61.97
2018-09-03T16:29:34.134Z,63.33
2018-09-03T16:32:02.377Z,62.83
2018-09-03T16:34:30.690Z,57.50
2018-09-03T16:36:59.070Z,57.03
2018-09-03T16:39:27.536Z,55.57
2018-09-03T16:41:55.928Z,52.10
2018-09-03T16:44:24.346Z,53.70
2018-09-03T16:46:52.814Z,49.27
2018-09-03T16:49:21.212Z,48.50
2018-09-03T16:51:49.779Z,50.90
2018-09-03T16:54:18.187Z,53.80
2018-09-03T16:56:46.627Z,47.13
2018-09-03T16:59:15.007Z,49.67
2018-09-03T17:01:43.398Z,54.10
2018-09-03T17:04:11.854Z,56.90
2018-09-03T17:06:40.213Z,54.07
2018-09-03T17:09:08.650Z,56.50
2018-09-03T17:11:37.118Z,63.93
2018-09-03T17:14:05.935Z,57.20
2018-09-03T17:16:34.351Z,56.40
2018-09-03T17:19:02.786Z,60.73
2018-09-03T17:21:31.355Z,62.40
2018-09-03T17:24:00.064Z,63.40
2018-09-03T17:26:28.474Z,55.63
2018-09-03T17:28:56.955Z,54.63
2018-09-03T17:31:25.359Z,61.63
2018-09-03T17:33:53.899Z,59.30
2018-09-03T17:36:22.360Z,63.90
2018-09-03T17:38:50.759Z,55.97
2018-09-03T17:41:19.249Z,64.73
2018-09-03T17:43:47.667Z,61.83
2018-09-03T17:46:16.088Z,54.43
2018-09-03T17:48:44.516Z,54.30
2018-09-03T17:51:13.060Z,59.50
2018-09-03T17:53:41.544Z,53.97
2018-09-03T17:56:10.332Z,62.10
2018-09-03T17:58:38.865Z,66.93
2018-09-03T18:01:07.342Z,55.97
2018-09-03T18:03:35.778Z,56.13
2018-09-03T18:06:04.176Z,61.70
2018-09-03T18:08:32.656Z,58.10
2018-09-03T18:11:01.082Z,66.30
2018-09-03T18:13:29.514Z,59.40
2018-09-03T18:15:57.897Z,64.00
2018-09-03T18:18:27.407Z,60.70
2018-09-03T18:20:56.553Z,69.57
2018-09-03T18:23:24.930Z,71.93
2018-09-03T18:25:53.355Z,69.90
2018-09-03T18:28:21.692Z,73.57
2018-09-03T18:30:50.111Z,68.83
2018-09-03T18:33:18.440Z,73.13
2018-09-03T18:35:46.817Z,68.07
2018-09-03T18:38:15.138Z,68.53
2018-09-03T18:40:43.502Z,72.30
2018-09-03T18:43:12.136Z,68.93
2018-09-03T18:45:41.443Z,74.00
2018-09-03T18:48:09.833Z,72.43
2018-09-03T18:50:38.214Z,62.97
2018-09-03T18:53:06.572Z,62.70
2018-09-03T18:55:35.997Z,68.67
2018-09-03T18:58:11.250Z,64.53
2018-09-03T19:00:39.547Z,68.53
2018-09-03T19:03:07.883Z,58.30
2018-09-03T19:05:36.286Z,60.00
2018-09-03T19:08:04.655Z,67.23
2018-09-03T19:10:33.044Z,67.90
2018-09-03T19:13:01.422Z,62.80
2018-09-03T19:15:29.821Z,71.17
2018-09-03T19:17:58.186Z,64.23
2018-09-03T19:20:29.287Z,66.07
2018-09-03T19:22:57.534Z,69.53
2018-09-03T19:25:25.800Z,64.37
2018-09-03T19:27:54.073Z,67.97
2018-09-03T19:30:22.373Z,69.87
2018-09-03T19:32:50.754Z,63.30
2018-09-03T19:35:19.042Z,57.97
2018-09-03T19:37:47.397Z,56.63
2018-09-03T19:40:15.811Z,63.10
2018-09-03T19:42:44.279Z,57.43
2018-09-03T19:45:12.794Z,53.20
2018-09-03T19:47:41.162Z,53.50
2018-09-03T19:50:09.583Z,53.90
2018-09-03T19:52:38.043Z,51.30
2018-09-03T19:55:06.439Z,53.43
2018-09-03T19:57:34.913Z,52.67
2018-09-03T20:00:03.386Z,49.07
2018-09-03T20:02:31.784Z,51.20
2018-09-03T20:05:00.179Z,59.53
2018-09-03T20:07:28.615Z,51.30
2018-09-03T20:09:57.034Z,55.80
2018-09-03T20:12:25.483Z,57.60
2018-09-03T20:15:13.918Z,58.93
2018-09-03T20:17:42.218Z,56.57
2018-09-03T20:20:10.491Z,62.03
2018-09-03T20:22:38.891Z,67.60
2018-09-03T20:25:07.391Z,66.63
2018-09-03T20:27:35.671Z,64.33
2018-09-03T20:30:03.923Z,60.83
2018-09-03T20:32:32.199Z,60.07
2018-09-03T20:35:00.525Z,62.33
2018-09-03T20:37:28.794Z,60.57
2018-09-03T20:39:57.083Z,60.80
2018-09-03T20:42:26.621Z,58.30
2018-09-03T20:44:55.355Z,66.47
2018-09-03T20:47:23.694Z,51.30
2018-09-03T20:49:52.067Z,55.20
2018-09-03T20:52:20.572Z,59.10
2018-09-03T20:54:49.058Z,62.77
2018-09-03T20:57:17.389Z,59.20
2018-09-03T20:59:45.657Z,51.83
2018-09-03T21:02:13.914Z,57.33
2018-09-03T21:04:42.184Z,57.50
2018-09-03T21:07:10.442Z,58.90
2018-09-03T21:09:39.086Z,67.87
2018-09-03T21:12:07.370Z,55.83
2018-09-03T21:14:35.676Z,55.27
2018-09-03T21:17:03.910Z,58.63
2018-09-03T21:19:32.188Z,59.77
2018-09-03T21:22:00.562Z,64.37
2018-09-03T21:24:28.797Z,61.07
2018-09-03T21:26:57.110Z,63.00
2018-09-03T21:29:25.456Z,75.77
2018-09-03T21:31:53.754Z,69.70
2018-09-03T21:34:22.054Z,74.77
2018-09-03T21:36:50.386Z,85.73
2018-09-03T21:39:18.713Z,231.13
2018-09-03T21:41:46.982Z,117.10
2018-09-03T21:44:15.262Z,100.60
2018-09-03T21:46:43.600Z,170.53
2018-09-03T21:49:11.846Z,189.07
2018-09-03T21:51:40.146Z,241.40
2018-09-03T21:54:08.411Z,158.83
2018-09-03T21:56:37.263Z,101.83
2018-09-03T21:59:05.554Z,225.87
2018-09-03T22:01:33.834Z,162.47
2018-09-03T22:04:02.126Z,266.53
2018-09-03T22:06:31.751Z,82.37
2018-09-03T22:09:00.403Z,117.10
2018-09-03T22:11:28.718Z,96.83
2018-09-03T22:13:57.011Z,146.87
2018-09-03T22:16:25.286Z,175.70
2018-09-03T22:18:53.547Z,153.40
2018-09-03T22:21:21.827Z,145.07
2018-09-03T22:23:50.123Z,146.97
2018-09-03T22:26:18.394Z,119.40
2018-09-03T22:28:46.695Z,184.57
2018-09-03T22:31:14.971Z,122.33
2018-09-03T22:33:43.242Z,154.87
2018-09-03T22:36:11.509Z,329.27
2018-09-03T22:38:39.794Z,264.83
2018-09-03T22:41:08.054Z,185.97
2018-09-03T22:43:36.343Z,209.00
2018-09-03T22:46:04.626Z,119.93
2018-09-03T22:48:32.957Z,96.67
2018-09-03T22:51:01.231Z,102.17
2018-09-03T22:53:29.512Z,95.33
2018-09-03T22:55:57.786Z,101.33
2018-09-03T22:58:26.061Z,66.00
2018-09-03T23:00:54.634Z,63.50
2018-09-03T23:03:23.263Z,60.77
2018-09-03T23:05:51.903Z,57.50
2018-09-03T23:08:20.639Z,71.00
2018-09-03T23:10:49.206Z,51.43
2018-09-03T23:13:17.830Z,47.83
2018-09-03T23:15:51.864Z,46.87
2018-09-03T23:18:21.060Z,49.33
2018-09-03T23:20:49.686Z,47.50
2018-09-03T23:23:18.340Z,46.20
2018-09-03T23:25:47.570Z,53.63
2018-09-03T23:28:16.271Z,50.60
2018-09-03T23:30:44.890Z,46.60
2018-09-03T23:33:13.495Z,47.07
2018-09-03T23:35:42.080Z,44.73
2018-09-03T23:38:10.657Z,46.50
2018-09-03T23:40:39.467Z,45.50
2018-09-03T23:43:08.035Z,47.27
2018-09-03T23:45:36.730Z,51.23
2018-09-03T23:48:05.472Z,50.97
2018-09-03T23:50:34.058Z,55.60
2018-09-03T23:53:02.643Z,50.50
2018-09-03T23:55:31.213Z,53.37
2018-09-03T23:57:59.950Z,52.07
